Terminal Aerodrome Forecast
Issued by NWS

Home | Current Version | Previous Version | Text Only | Print | Product List | Glossary On
Versions: 1 2 3 4 5 6 7 8 9 10 11 12 13 14 15 16 17 18 19 20 21
924
FTUS44 KCRP 172330
TAFALI
TAF
KALI 172330Z 1800/1824 15011KT P6SM FEW040
     FM180700 18007KT P6SM BKN006 OVC012
      TEMPO 1807/1810 SCT006 BKN012
     FM181100 18005KT 4SM BR OVC004
      TEMPO 1811/1814 2SM BR OVC002
     FM181500 21007KT P6SM FEW008 SCT015
     FM182100 36013KT P6SM SCT050=

USA.gov is the U.S. government's official web portal to all federal, state and local government web resources and services.